createdAt,value
2023-04-02T00:02:02.281Z,147.59
2023-04-02T00:07:13.695Z,165.18
2023-04-02T00:12:12.744Z,168.61
2023-04-02T00:17:21.624Z,157.27
2023-04-02T00:22:30.750Z,158.76
2023-04-02T00:27:39.295Z,168.03
2023-04-02T00:32:49.296Z,170.37
2023-04-02T00:37:59.833Z,186.11
2023-04-02T00:42:59.199Z,173.10
2023-04-02T00:48:08.735Z,198.36
2023-04-02T00:53:17.148Z,147.92
2023-04-02T00:58:25.970Z,147.66
2023-04-02T01:03:35.900Z,157.66
2023-04-02T01:08:44.520Z,142.83
2023-04-02T01:13:52.816Z,148.95
2023-04-02T01:19:03.499Z,151.30
2023-04-02T01:24:02.959Z,108.91
2023-04-02T01:29:11.834Z,110.37
2023-04-02T01:34:21.745Z,118.47
2023-04-02T01:39:30.386Z,137.82
2023-04-02T01:44:38.554Z,150.98
2023-04-02T01:49:40.427Z,142.99
2023-04-02T01:54:49.645Z,115.98
2023-04-02T01:59:59.386Z,124.80
2023-04-02T02:05:08.673Z,141.82
2023-04-02T02:10:18.806Z,123.72
2023-04-02T02:15:17.083Z,133.52
2023-04-02T02:20:27.129Z,145.68
2023-04-02T02:25:26.776Z,137.81
2023-04-02T02:30:36.614Z,114.03
2023-04-02T02:35:46.672Z,120.21
2023-04-02T02:40:46.874Z,90.02
2023-04-02T02:45:46.387Z,89.54
2023-04-02T02:50:55.762Z,84.79
2023-04-02T02:56:04.053Z,70.87
2023-04-02T03:01:12.938Z,54.09
2023-04-02T03:06:21.388Z,63.18
2023-04-02T03:11:29.960Z,61.31
2023-04-02T03:16:39.781Z,57.87
2023-04-02T03:21:48.363Z,75.32
2023-04-02T03:26:59.585Z,49.63
2023-04-02T03:31:59.502Z,31.03
2023-04-02T03:37:07.832Z,43.16
2023-04-02T03:42:17.076Z,47.03
2023-04-02T03:47:26.809Z,34.92
2023-04-02T03:52:35.684Z,35.53
2023-04-02T03:57:44.327Z,30.56
2023-04-02T04:02:53.341Z,30.05
2023-04-02T04:08:01.580Z,36.19
2023-04-02T04:13:10.549Z,31.23
2023-04-02T04:18:12.042Z,50.78
2023-04-02T04:23:20.841Z,43.62
2023-04-02T04:28:30.347Z,31.88
2023-04-02T04:33:40.119Z,51.01
2023-04-02T04:38:49.763Z,50.92
2023-04-02T04:43:58.984Z,66.34
2023-04-02T04:49:08.475Z,80.15
2023-04-02T04:54:17.185Z,80.64
2023-04-02T04:59:25.833Z,62.57
2023-04-02T05:04:35.498Z,62.00
2023-04-02T05:09:43.822Z,93.47
2023-04-02T05:14:52.526Z,110.65
2023-04-02T05:20:01.079Z,76.38
2023-04-02T05:25:11.304Z,75.42
2023-04-02T05:30:10.882Z,73.97
2023-04-02T05:35:20.533Z,63.56
2023-04-02T05:40:30.172Z,57.82
2023-04-02T05:45:38.807Z,40.72
2023-04-02T05:50:48.182Z,42.37
2023-04-02T05:55:56.710Z,48.63
2023-04-02T06:01:05.348Z,63.43
2023-04-02T06:06:14.624Z,43.80
2023-04-02T06:11:21.134Z,26.82
2023-04-02T06:16:30.095Z,32.27
2023-04-02T06:21:37.966Z,43.97
2023-04-02T06:26:46.530Z,46.18
2023-04-02T06:31:54.994Z,61.47
2023-04-02T06:37:03.877Z,87.66
2023-04-02T06:42:13.127Z,104.32
2023-04-02T06:47:22.227Z,129.98
2023-04-02T06:52:32.354Z,210.38
2023-04-02T06:57:42.901Z,151.94
2023-04-02T07:02:50.370Z,175.67
2023-04-02T07:08:00.066Z,112.95
2023-04-02T07:13:08.642Z,109.15
2023-04-02T07:18:18.989Z,143.60
2023-04-02T07:23:19.868Z,160.53
2023-04-02T07:28:20.883Z,166.03
2023-04-02T07:33:29.265Z,256.46
2023-04-02T07:38:38.510Z,280.38
2023-04-02T07:43:48.457Z,167.49
2023-04-02T07:48:58.312Z,71.30
2023-04-02T07:54:06.659Z,25.29
2023-04-02T07:59:15.410Z,22.23
2023-04-02T08:04:24.437Z,41.16
2023-04-02T08:09:35.853Z,17.51
2023-04-02T08:14:33.976Z,13.56
2023-04-02T08:19:54.120Z,12.32
2023-04-02T08:24:54.923Z,16.33
2023-04-02T08:29:53.525Z,25.01
2023-04-02T08:35:01.762Z,15.16
2023-04-02T08:40:10.670Z,12.87
2023-04-02T08:45:25.043Z,19.62
2023-04-02T08:50:27.954Z,18.84
2023-04-02T08:55:37.343Z,12.48
2023-04-02T09:00:45.425Z,9.65
2023-04-02T09:05:53.928Z,9.41
2023-04-02T09:11:03.321Z,9.77
2023-04-02T09:16:11.881Z,10.43
2023-04-02T09:21:20.825Z,9.06
2023-04-02T09:26:28.773Z,10.39
2023-04-02T09:31:37.685Z,9.04
2023-04-02T09:36:45.777Z,9.13
2023-04-02T09:42:02.803Z,8.32
2023-04-02T09:47:01.785Z,8.69
2023-04-02T09:52:11.031Z,8.77
2023-04-02T09:57:18.969Z,8.49
2023-04-02T10:02:28.035Z,7.50
2023-04-02T10:07:36.113Z,7.77
2023-04-02T10:12:46.065Z,7.17
2023-04-02T10:17:54.493Z,7.00
2023-04-02T10:23:06.437Z,6.63
2023-04-02T10:28:05.978Z,6.55
2023-04-02T10:33:17.321Z,5.62
2023-04-02T10:38:17.752Z,5.52
2023-04-02T10:43:17.740Z,5.16
2023-04-02T10:48:15.974Z,5.88
2023-04-02T10:53:25.366Z,5.40
2023-04-02T10:58:33.834Z,5.18
2023-04-02T11:03:42.728Z,5.12
2023-04-02T11:08:51.140Z,5.75
2023-04-02T11:14:00.149Z,5.77
2023-04-02T11:19:08.730Z,5.29
2023-04-02T11:24:17.640Z,5.94
2023-04-02T11:29:31.513Z,6.06
2023-04-02T11:34:31.525Z,5.55
2023-04-02T11:39:31.143Z,6.39
2023-04-02T11:44:41.428Z,6.27
2023-04-02T11:49:40.565Z,8.17
2023-04-02T11:54:49.384Z,8.27
2023-04-02T11:59:59.115Z,9.42
2023-04-02T12:05:08.873Z,8.23
2023-04-02T12:10:18.554Z,8.11
2023-04-02T12:15:27.207Z,7.09
2023-04-02T12:20:38.334Z,6.78
2023-04-02T12:25:38.024Z,7.07
2023-04-02T12:30:46.294Z,8.72
2023-04-02T12:35:56.939Z,10.00
2023-04-02T12:40:55.236Z,7.26
2023-04-02T12:46:04.893Z,4.31
2023-04-02T12:51:16.688Z,3.78
2023-04-02T12:56:15.024Z,4.36
2023-04-02T13:01:13.914Z,4.84
2023-04-02T13:06:24.089Z,5.03
2023-04-02T13:11:22.446Z,4.95
2023-04-02T13:16:32.191Z,5.25
2023-04-02T13:21:40.231Z,4.91
2023-04-02T13:26:49.949Z,4.40
2023-04-02T13:31:59.357Z,5.28
2023-04-02T13:37:08.403Z,4.95
2023-04-02T13:42:17.323Z,5.49
2023-04-02T13:47:26.872Z,4.28
2023-04-02T13:52:35.027Z,5.24
2023-04-02T13:57:46.254Z,3.89
2023-04-02T14:02:45.615Z,5.17
2023-04-02T14:07:53.816Z,4.61
2023-04-02T14:13:02.938Z,3.30
2023-04-02T14:18:11.160Z,4.06
2023-04-02T14:23:20.067Z,4.26
2023-04-02T14:28:31.695Z,2.20
2023-04-02T14:33:30.576Z,2.02
2023-04-02T14:38:39.116Z,1.97
2023-04-02T14:43:48.117Z,2.00
2023-04-02T14:48:58.722Z,2.73
2023-04-02T14:53:57.108Z,3.24
2023-04-02T14:59:09.922Z,5.02
2023-04-02T15:04:08.873Z,5.41
2023-04-02T15:09:17.487Z,13.21
2023-04-02T15:14:26.804Z,12.83
2023-04-02T15:19:36.884Z,14.91
2023-04-02T15:24:36.875Z,21.71
2023-04-02T15:29:46.309Z,46.16
2023-04-02T15:34:54.784Z,75.33
2023-04-02T15:40:03.244Z,71.92
2023-04-02T15:45:12.480Z,90.85
2023-04-02T15:50:22.649Z,109.72
2023-04-02T15:55:22.639Z,125.38
2023-04-02T16:00:33.385Z,120.42
2023-04-02T16:05:42.689Z,97.81
2023-04-02T16:10:44.871Z,86.68
2023-04-02T16:15:42.820Z,114.54
2023-04-02T16:20:53.343Z,115.48
2023-04-02T16:25:51.549Z,107.22
2023-04-02T16:31:00.822Z,95.73
2023-04-02T16:36:09.351Z,90.16
2023-04-02T16:41:20.938Z,93.15
2023-04-02T16:46:25.323Z,71.51
2023-04-02T16:51:29.007Z,55.22
2023-04-02T16:56:27.507Z,56.53
2023-04-02T17:01:37.659Z,63.98
2023-04-02T17:06:36.652Z,68.60
2023-04-02T17:11:46.943Z,84.53
2023-04-02T17:16:47.499Z,70.54
2023-04-02T17:21:48.622Z,69.76
2023-04-02T17:26:49.833Z,60.91
2023-04-02T17:31:49.861Z,31.76
2023-04-02T17:36:50.319Z,28.09
2023-04-02T17:41:49.956Z,13.94
2023-04-02T17:46:58.475Z,18.05
2023-04-02T17:52:08.315Z,30.69
2023-04-02T17:57:17.101Z,27.70
2023-04-02T18:02:28.670Z,39.40
2023-04-02T18:07:26.624Z,48.45
2023-04-02T18:12:37.158Z,41.96
2023-04-02T18:17:37.364Z,32.67
2023-04-02T18:22:37.544Z,27.32
2023-04-02T18:27:36.820Z,38.79
2023-04-02T18:32:47.098Z,37.00
2023-04-02T18:37:46.942Z,42.13
2023-04-02T18:42:55.901Z,91.21
2023-04-02T18:48:05.177Z,69.89
2023-04-02T18:53:14.725Z,71.92
2023-04-02T18:58:23.185Z,91.74
2023-04-02T19:03:32.806Z,108.28
2023-04-02T19:08:41.927Z,110.13
2023-04-02T19:13:51.710Z,125.11
2023-04-02T19:19:00.073Z,116.08
2023-04-02T19:24:12.882Z,148.79
2023-04-02T19:29:12.474Z,155.70
2023-04-02T19:34:23.133Z,185.99
2023-04-02T19:39:22.408Z,152.28
2023-04-02T19:44:32.090Z,150.72
2023-04-02T19:49:40.544Z,164.13
2023-04-02T19:54:49.314Z,160.15
2023-04-02T19:59:58.635Z,157.26
2023-04-02T20:05:08.942Z,190.00
2023-04-02T20:10:09.541Z,199.07
2023-04-02T20:15:11.751Z,167.17
2023-04-02T20:20:11.091Z,138.73
2023-04-02T20:25:19.966Z,160.91
2023-04-02T20:30:29.206Z,139.72
2023-04-02T20:35:39.353Z,138.20
2023-04-02T20:40:37.858Z,146.71
2023-04-02T20:45:49.569Z,149.69
2023-04-02T20:50:50.772Z,95.36
2023-04-02T20:55:51.841Z,101.02
2023-04-02T21:00:51.008Z,93.31
2023-04-02T21:05:59.673Z,136.22
2023-04-02T21:11:07.958Z,160.34
2023-04-02T21:16:16.805Z,114.89
2023-04-02T21:21:25.470Z,131.32
2023-04-02T21:26:34.942Z,160.11
2023-04-02T21:31:45.367Z,188.19
2023-04-02T21:36:44.750Z,185.83
2023-04-02T21:41:53.392Z,150.16
2023-04-02T21:47:03.203Z,127.05
2023-04-02T21:52:12.555Z,133.21
2023-04-02T21:57:21.684Z,144.90
2023-04-02T22:02:29.844Z,181.38
2023-04-02T22:07:40.126Z,184.03
2023-04-02T22:12:38.514Z,187.99
2023-04-02T22:17:48.415Z,220.17
2023-04-02T22:22:56.860Z,218.12
2023-04-02T22:28:09.024Z,187.68
2023-04-02T22:33:09.524Z,206.81
2023-04-02T22:38:07.854Z,185.48
2023-04-02T22:43:17.707Z,228.85
2023-04-02T22:48:26.799Z,240.32
2023-04-02T22:53:36.447Z,237.84
2023-04-02T22:58:47.536Z,232.06
2023-04-02T23:03:45.980Z,222.20
2023-04-02T23:08:55.636Z,212.74
2023-04-02T23:14:04.782Z,202.68
2023-04-02T23:19:14.006Z,229.79
2023-04-02T23:24:22.113Z,212.94
2023-04-02T23:29:30.586Z,264.89
2023-04-02T23:34:41.514Z,283.15
2023-04-02T23:39:41.020Z,267.65
2023-04-02T23:44:49.273Z,260.37
2023-04-02T23:49:59.496Z,281.25
2023-04-02T23:55:00.184Z,276.63
